createdAt,value
2019-04-30T00:04:29.850Z,10.53
2019-04-30T00:09:39.510Z,10.70
2019-04-30T00:14:55.761Z,11.17
2019-04-30T00:20:11.238Z,12.13
2019-04-30T00:25:24.879Z,11.23
2019-04-30T00:30:34.697Z,11.97
2019-04-30T00:35:49.694Z,13.07
2019-04-30T00:41:06.845Z,14.60
2019-04-30T00:46:24.910Z,12.67
2019-04-30T00:51:35.524Z,12.73
2019-04-30T00:56:42.496Z,14.23
2019-04-30T01:02:27.853Z,14.87
2019-04-30T01:07:31.615Z,14.50
2019-04-30T01:12:50.213Z,13.03
2019-04-30T01:18:05.171Z,12.83
2019-04-30T01:23:23.324Z,14.60
2019-04-30T01:28:35.059Z,14.20
2019-04-30T01:33:48.903Z,15.23
2019-04-30T01:39:01.598Z,15.07
2019-04-30T01:44:13.919Z,15.40
2019-04-30T01:49:28.911Z,14.70
2019-04-30T01:54:39.129Z,15.20
2019-04-30T02:00:09.653Z,15.23
2019-04-30T02:05:18.927Z,15.00
2019-04-30T02:10:29.329Z,14.37
2019-04-30T02:15:41.188Z,17.03
2019-04-30T02:20:53.854Z,15.33
2019-04-30T02:26:04.937Z,17.00
2019-04-30T02:31:22.304Z,17.43
2019-04-30T02:36:53.149Z,15.77
2019-04-30T02:42:03.644Z,17.40
2019-04-30T02:47:23.552Z,16.50
2019-04-30T02:52:43.236Z,17.10
2019-04-30T02:57:55.887Z,16.67
2019-04-30T03:03:06.595Z,16.70
2019-04-30T03:08:15.915Z,16.70
2019-04-30T03:13:51.459Z,18.73
2019-04-30T03:19:11.495Z,18.07
2019-04-30T03:24:49.840Z,19.83
2019-04-30T03:30:02.026Z,19.53
2019-04-30T03:35:14.957Z,17.57
2019-04-30T03:40:52.691Z,19.93
2019-04-30T03:46:14.829Z,16.77
2019-04-30T03:51:29.846Z,18.73
2019-04-30T03:56:41.933Z,18.13
2019-04-30T04:02:12.247Z,20.03
2019-04-30T04:07:40.082Z,19.73
2019-04-30T04:13:04.099Z,19.60
2019-04-30T04:18:20.200Z,17.80
2019-04-30T04:23:34.850Z,16.73
2019-04-30T04:28:49.603Z,17.17
2019-04-30T04:34:03.211Z,18.10
2019-04-30T04:39:20.335Z,17.40
2019-04-30T04:44:35.339Z,15.53
2019-04-30T04:49:53.747Z,17.60
2019-04-30T04:55:05.269Z,18.47
2019-04-30T05:00:22.133Z,17.23
2019-04-30T05:05:36.750Z,17.67
2019-04-30T05:11:12.256Z,18.73
2019-04-30T05:16:29.666Z,19.00
2019-04-30T05:21:51.474Z,18.27
2019-04-30T05:27:04.225Z,18.43
2019-04-30T05:32:16.557Z,17.67
2019-04-30T05:38:09.296Z,19.17
2019-04-30T05:43:24.585Z,17.27
2019-04-30T05:48:39.593Z,17.57
2019-04-30T05:53:59.108Z,18.00
2019-04-30T05:59:29.114Z,16.90
2019-04-30T06:04:39.627Z,18.20
2019-04-30T06:09:59.717Z,17.30
2019-04-30T06:15:39.077Z,18.43
2019-04-30T06:20:51.504Z,18.53
2019-04-30T06:26:09.579Z,18.27
2019-04-30T06:31:26.083Z,16.80
2019-04-30T06:36:34.284Z,17.53
2019-04-30T06:41:45.972Z,16.63
2019-04-30T06:47:02.605Z,17.27
2019-04-30T06:52:23.030Z,17.53
2019-04-30T06:57:38.292Z,17.93
2019-04-30T07:02:49.273Z,18.20
2019-04-30T07:08:18.977Z,18.10
2019-04-30T07:13:32.223Z,18.37
2019-04-30T07:18:48.932Z,20.40
2019-04-30T07:24:02.877Z,20.37
2019-04-30T07:29:15.510Z,20.13
2019-04-30T07:34:31.696Z,20.83
2019-04-30T07:39:46.467Z,20.60
2019-04-30T07:45:00.709Z,20.60
2019-04-30T07:50:13.219Z,22.70
2019-04-30T07:55:29.349Z,25.05
2019-04-30T08:00:45.488Z,21.80
2019-04-30T08:05:59.919Z,22.67
2019-04-30T08:11:23.058Z,23.90
2019-04-30T08:16:32.225Z,22.57
2019-04-30T08:21:48.712Z,23.00
2019-04-30T08:27:06.554Z,21.03
2019-04-30T08:32:20.107Z,23.20
2019-04-30T08:37:32.300Z,24.93
2019-04-30T08:42:45.604Z,23.00
2019-04-30T08:48:00.900Z,24.63
2019-04-30T08:53:25.984Z,29.03
2019-04-30T08:58:45.024Z,22.10
2019-04-30T09:04:02.968Z,21.33
2019-04-30T09:09:20.915Z,23.13
2019-04-30T09:14:33.936Z,24.93
2019-04-30T09:19:50.003Z,25.50
2019-04-30T09:25:19.602Z,26.93
2019-04-30T09:30:36.015Z,25.13
2019-04-30T09:36:09.328Z,25.17
2019-04-30T09:41:29.343Z,24.23
2019-04-30T09:46:41.788Z,23.37
2019-04-30T09:51:59.447Z,23.50
2019-04-30T09:57:19.147Z,23.90
2019-04-30T10:02:40.215Z,22.97
2019-04-30T10:07:59.395Z,22.27
2019-04-30T10:13:13.759Z,23.03
2019-04-30T10:18:23.973Z,20.57
2019-04-30T10:23:39.096Z,19.97
2019-04-30T10:29:00.188Z,19.40
2019-04-30T10:34:15.838Z,19.00
2019-04-30T10:39:44.864Z,18.50
2019-04-30T10:45:00.325Z,18.00
2019-04-30T10:50:18.022Z,20.17
2019-04-30T10:55:35.698Z,17.43
2019-04-30T11:00:51.494Z,16.27
2019-04-30T11:06:08.689Z,16.53
2019-04-30T11:11:24.972Z,16.73
2019-04-30T11:16:41.989Z,16.90
2019-04-30T11:22:00.215Z,18.10
2019-04-30T11:27:20.279Z,17.07
2019-04-30T11:32:53.310Z,18.53
2019-04-30T11:38:07.254Z,18.27
2019-04-30T11:43:22.129Z,17.63
2019-04-30T11:48:46.243Z,18.30
2019-04-30T11:54:20.478Z,17.67
2019-04-30T11:59:39.626Z,17.93
2019-04-30T12:04:59.919Z,17.30
2019-04-30T12:17:04.483Z,16.93
2019-04-30T12:22:36.110Z,16.93
2019-04-30T12:27:49.641Z,15.37
2019-04-30T12:33:10.735Z,15.67
2019-04-30T12:38:26.185Z,15.33
2019-04-30T12:43:46.745Z,16.03
2019-04-30T12:49:18.867Z,14.40
2019-04-30T13:00:19.668Z,12.67
2019-04-30T13:05:40.191Z,16.53
2019-04-30T13:10:56.632Z,16.03
2019-04-30T13:16:13.125Z,15.77
2019-04-30T13:21:32.231Z,14.27
2019-04-30T13:27:24.340Z,14.43
2019-04-30T13:33:10.867Z,15.43
2019-04-30T13:38:47.529Z,15.37
2019-04-30T13:44:16.657Z,14.43
2019-04-30T13:50:04.073Z,15.97
2019-04-30T13:55:20.255Z,15.23
2019-04-30T14:00:37.118Z,15.87
2019-04-30T14:05:51.598Z,15.77
2019-04-30T14:11:24.033Z,16.73
2019-04-30T14:16:33.628Z,16.77
2019-04-30T14:21:49.423Z,16.23
2019-04-30T14:26:59.717Z,14.93
2019-04-30T14:32:11.157Z,15.17
2019-04-30T14:37:25.487Z,16.30
2019-04-30T14:43:30.032Z,15.17
2019-04-30T14:48:53.503Z,16.53
2019-04-30T14:54:19.996Z,17.67
2019-04-30T15:00:11.277Z,16.00
2019-04-30T15:05:38.546Z,18.47
2019-04-30T15:11:13.685Z,19.33
2019-04-30T15:16:30.277Z,19.30
2019-04-30T15:21:54.940Z,19.53
2019-04-30T15:27:09.314Z,17.77
2019-04-30T15:32:24.450Z,17.83
2019-04-30T15:37:38.586Z,18.37
2019-04-30T15:42:53.390Z,18.03
2019-04-30T15:48:08.569Z,15.97
2019-04-30T15:53:24.701Z,15.97
2019-04-30T15:58:45.468Z,14.73
2019-04-30T16:04:01.013Z,14.77
2019-04-30T16:09:18.268Z,14.83
2019-04-30T16:15:09.867Z,14.27
2019-04-30T16:20:44.986Z,14.73
2019-04-30T16:25:59.999Z,14.13
2019-04-30T16:31:33.331Z,13.53
2019-04-30T16:36:44.940Z,13.70
2019-04-30T16:42:09.165Z,14.00
2019-04-30T16:47:19.874Z,13.00
2019-04-30T16:52:44.953Z,12.63
2019-04-30T16:57:58.565Z,13.13
2019-04-30T17:03:32.671Z,12.33
2019-04-30T17:08:58.318Z,13.23
2019-04-30T17:14:11.177Z,12.73
2019-04-30T17:19:24.132Z,12.63
2019-04-30T17:24:54.841Z,12.23
2019-04-30T17:30:09.320Z,13.13
2019-04-30T17:35:22.791Z,13.80
2019-04-30T17:40:39.053Z,12.90
2019-04-30T17:45:58.521Z,13.07
2019-04-30T17:51:12.249Z,12.43
2019-04-30T17:56:22.958Z,12.50
2019-04-30T18:01:40.069Z,12.87
2019-04-30T18:06:54.465Z,12.53
2019-04-30T18:12:10.477Z,12.70
2019-04-30T18:17:27.757Z,12.97
2019-04-30T18:22:59.513Z,12.87
2019-04-30T18:28:09.277Z,12.63
2019-04-30T18:33:17.791Z,12.73
2019-04-30T18:38:31.232Z,12.50
2019-04-30T18:43:59.718Z,13.60
2019-04-30T18:49:11.076Z,13.07
2019-04-30T18:54:29.104Z,12.97
2019-04-30T18:59:42.194Z,13.50
2019-04-30T19:05:18.349Z,13.23
2019-04-30T19:16:52.924Z,13.00
2019-04-30T19:22:05.202Z,13.23
2019-04-30T19:27:29.681Z,14.60
2019-04-30T19:32:49.019Z,15.23
2019-04-30T19:38:09.207Z,14.67
2019-04-30T19:43:28.608Z,15.40
2019-04-30T19:48:38.219Z,13.83
2019-04-30T19:53:48.953Z,15.97
2019-04-30T19:59:05.643Z,16.00
2019-04-30T20:04:15.136Z,15.57
2019-04-30T20:09:31.429Z,15.47
2019-04-30T20:14:50.346Z,15.40
2019-04-30T20:20:03.495Z,39.10
2019-04-30T20:25:36.002Z,54.80
2019-04-30T20:30:48.985Z,22.90
2019-04-30T20:36:04.233Z,24.65
2019-04-30T20:46:49.117Z,19.83
2019-04-30T20:52:08.834Z,19.67
2019-04-30T20:57:23.747Z,31.20
2019-04-30T21:02:32.706Z,18.60
2019-04-30T21:07:46.023Z,20.80
2019-04-30T21:13:04.057Z,16.83
2019-04-30T21:18:19.606Z,16.97
2019-04-30T21:24:10.977Z,17.47
2019-04-30T21:29:21.212Z,17.97
2019-04-30T21:34:40.908Z,18.30
2019-04-30T21:39:51.168Z,17.90
2019-04-30T21:45:04.836Z,18.40
2019-04-30T21:50:19.703Z,18.50
2019-04-30T21:55:35.636Z,18.27
2019-04-30T22:01:12.066Z,16.77
2019-04-30T22:06:29.637Z,18.17
2019-04-30T22:11:44.204Z,17.40
2019-04-30T22:16:59.284Z,18.83
2019-04-30T22:22:12.044Z,15.03
2019-04-30T22:27:25.495Z,18.87
2019-04-30T22:32:59.476Z,18.67
2019-04-30T22:38:18.942Z,17.77
2019-04-30T22:43:31.196Z,16.93
2019-04-30T22:48:48.969Z,16.90
2019-04-30T22:54:01.823Z,15.67
2019-04-30T22:59:15.848Z,16.00
2019-04-30T23:04:40.822Z,15.33
2019-04-30T23:09:54.656Z,13.97
2019-04-30T23:15:05.817Z,17.77
2019-04-30T23:25:54.985Z,17.87
2019-04-30T23:31:06.142Z,16.02
2019-04-30T23:36:36.372Z,15.90
2019-04-30T23:41:52.688Z,16.00
2019-04-30T23:47:13.241Z,15.80
2019-04-30T23:52:26.726Z,13.80
2019-04-30T23:57:44.299Z,13.23
